Latest Weather Observations for Narrabri

IDN60801

Issued at 1:02 pm EDT Saturday 3 December 2016 (issued every 30 minutes, with the page automatically refreshed every 10 minutes)

About weather observations | Map of weather stations | Latest weather observations for NSW | Other Formats
Station Details ID: 054038 Name: NARRABRI AIRPORT AWS Lat: -30.32 Lon: 149.83 Height: 229.02 m
Data from the previous 72 hours. | See also: Recent months at Narrabri
Date/Time
EDT
Temp
°C
App
Temp
°C
Dew
Point
°C
Rel
Hum
%
Delta-T
°C
Wind Press
QNH
hPa
Press
MSL
hPa
Rain since
9am
mm
Dir  Spd
km/h
Gust
km/h
Spd
kts
Gust
kts
03/01:00pm 40.4 35.6 5.5 12 19.5 NW 20 33 11 18 1009.8 1008.5 0.0
03/12:30pm 40.1 34.2 7.5 14 18.8 NW 28 41 15 22 1010.2 1008.9 0.0
03/12:00pm 38.2 33.5 10.5 19 16.5 N 26 35 14 19 1010.5 1009.3 0.0
03/11:30am 37.8 34.5 11.7 21 15.8 N 20 39 11 21 1010.8 1009.6 0.0
03/11:00am 36.0 31.9 10.2 21 15.2 N 22 32 12 17 1011.3 1010.1 0.0
03/10:30am 35.9 32.8 11.5 23 14.6 N 19 26 10 14 1011.3 1010.1 0.0
03/10:00am 35.1 31.4 11.5 24 14.1 NNE 22 30 12 16 1011.7 1010.4 0.0
03/09:30am 34.4 32.2 12.1 26 13.4 NNE 15 22 8 12 1012.0 1010.7 0.0
03/09:00am 33.6 30.4 12.0 27 12.9 NNE 20 33 11 18 1012.2 1010.9 0.0
03/08:30am 31.6 30.2 10.9 28 12.1 NNE 9 19 5 10 1012.4 1011.1 0.0
03/08:00am 28.4 26.8 8.7 29 10.9 SSE 7 9 4 5 1012.1 1010.8 0.0
03/07:30am 27.0 24.9 8.4 31 10.2 SSE 9 11 5 6 1012.0 1010.7 0.0
03/07:00am 25.9 24.1 8.0 32 9.7 S 7 11 4 6 1011.7 1010.4 0.0
03/06:30am 26.2 24.3 7.7 31 10.0 E 7 19 4 10 1011.1 1009.9 0.0
03/06:00am 25.3 21.8 7.0 31 9.7 SSE 15 19 8 10 1010.3 1009.0 0.0
03/05:30am 24.7 21.5 6.9 32 9.4 SSE 13 17 7 9 1010.2 1008.9 0.0
03/05:00am 25.1 22.7 6.8 31 9.7 SSE 9 13 5 7 1010.0 1008.7 0.0
03/04:30am 25.7 22.5 6.8 30 10.0 SE 13 17 7 9 1009.8 1008.5 0.0
03/04:00am 25.6 23.0 6.3 29 10.1 SE 9 11 5 6 1009.6 1008.3 0.0
03/03:30am 27.2 23.9 6.6 27 11.0 SE 13 19 7 10 1010.0 1008.7 0.0
03/03:00am 26.6 23.2 6.1 27 10.8 SE 13 17 7 9 1010.4 1009.1 0.0
03/02:30am 28.2 24.4 5.7 24 11.8 SE 15 22 8 12 1010.7 1009.5 0.0
03/02:00am 28.6 24.0 5.5 23 12.2 SE 19 28 10 15 1011.0 1009.8 0.0
03/01:30am 28.9 24.1 5.7 23 12.3 SE 20 32 11 17 1011.5 1010.3 0.0
03/01:00am 29.1 24.2 5.2 22 12.5 SE 20 28 11 15 1011.9 1010.6 0.0
03/12:30am 29.5 24.3 5.6 22 12.7 SE 22 33 12 18 1011.9 1010.6 0.0
03/12:00am 29.5 24.3 5.6 22 12.7 SSE 22 30 12 16 1012.1 1010.8 0.0
 
Date/Time
EDT
Temp
°C
App
Temp
°C
Dew
Point
°C
Rel
Hum
%
Delta-T
°C
Wind Press
QNH
hPa
Press
MSL
hPa
Rain since
9am
mm
Dir  Spd
km/h
Gust
km/h
Spd
kts
Gust
kts
02/11:30pm 29.6 24.9 5.0 21 12.9 SSE 19 28 10 15 1012.1 1010.8 0.0
02/11:00pm 30.4 26.4 4.9 20 13.4 SE 15 22 8 12 1012.0 1010.7 0.0
02/10:30pm 30.9 25.9 4.6 19 13.8 SE 20 28 11 15 1011.9 1010.6 0.0
02/10:00pm 31.1 26.7 4.8 19 13.9 SE 17 26 9 14 1011.7 1010.4 0.0
02/09:30pm 31.4 26.9 4.2 18 14.2 SE 17 28 9 15 1011.5 1010.3 0.0
02/09:00pm 30.9 26.8 4.6 19 13.8 SE 15 19 8 10 1011.4 1010.2 0.0
02/08:30pm 31.5 27.8 4.3 18 14.3 SE 13 19 7 10 1011.2 1010.0 0.0
02/08:00pm 32.2 28.4 4.1 17 14.8 SE 13 17 7 9 1010.7 1009.5 0.0
02/07:30pm 33.4 30.0 4.2 16 15.4 SE 11 17 6 9 1010.2 1008.9 0.0
02/07:00pm 34.1 31.2 4.7 16 15.8 SE 9 11 5 6 1010.0 1008.7 0.0
02/06:30pm 35.5 31.1 2.9 13 17.1 S 15 20 8 11 1009.7 1008.4 0.0
02/06:00pm 36.3 30.9 2.4 12 17.7 S 20 30 11 16 1009.3 1008.0 0.0
02/05:30pm 36.2 29.8 1.1 11 17.9 SSW 24 33 13 18 1009.0 1007.7 0.0
02/05:00pm 37.4 31.2 2.0 11 18.5 SSW 24 32 13 17 1009.0 1007.7 0.0
02/04:30pm 37.3 33.0 3.1 12 18.2 SSW 15 24 8 13 1009.0 1007.7 0.0
02/04:00pm 39.4 34.2 3.5 11 19.4 WSW 20 33 11 18 1009.0 1007.7 0.0
02/03:30pm 38.5 34.4 4.1 12 18.7 W 15 28 8 15 1009.1 1007.8 0.0
02/03:00pm 38.6 34.8 4.1 12 18.8 WNW 13 24 7 13 1009.3 1008.0 0.0
02/02:30pm 37.6 32.6 3.4 12 18.3 SSW 19 30 10 16 1009.5 1008.2 0.0
02/02:00pm 37.1 32.2 4.1 13 17.8 SW 19 32 10 17 1009.8 1008.5 0.0
02/01:30pm 37.3 32.6 3.1 12 18.2 SW 17 28 9 15 1010.0 1008.7 0.0
02/01:00pm 36.4 32.9 3.6 13 17.5 W 11 19 6 10 1010.1 1008.8 0.0
02/12:30pm 35.7 33.3 4.1 14 16.9 W 6 13 3 7 1010.4 1009.1 0.0
02/12:00pm 35.5 32.5 5.8 16 16.3 SSW 11 19 6 10 1010.6 1009.4 0.0
02/11:30am 34.5 32.2 5.9 17 15.6 SSW 7 13 4 7 1010.7 1009.5 0.0
02/11:00am 33.6 30.8 5.2 17 15.3 WSW 9 15 5 8 1011.1 1009.9 0.0
02/10:30am 32.5 30.1 5.1 18 14.6 W 7 17 4 9 1011.1 1009.9 0.0
02/10:00am 31.1 29.1 8.8 25 12.6 SW 9 17 5 9 1011.0 1009.8 0.0
02/09:30am 29.8 28.4 8.8 27 11.7 SW 6 11 3 6 1010.7 1009.5 0.0
02/09:00am 28.7 26.8 6.7 25 11.8 SSE 6 9 3 5 1010.6 1009.4 0.0
02/08:30am 26.8 24.7 5.7 26 11.0 SSW 6 9 3 5 1010.6 1009.4 0.0
02/08:00am 25.0 22.8 6.2 30 9.8 S 7 9 4 5 1010.4 1009.1 0.0
02/07:30am 23.0 21.5 8.3 39 7.9 SSE 6 7 3 4 1010.2 1008.9 0.0
02/07:00am 20.6 19.0 8.9 47 6.3 SSE 7 11 4 6 1010.1 1008.8 0.0
02/06:30am 18.6 17.2 7.1 47 5.9 NNE 4 9 2 5 1009.9 1008.6 0.0
02/06:00am 18.1 14.8 6.3 46 5.9 N 13 17 7 9 1009.8 1008.5 0.0
02/05:30am 16.2 14.5 6.1 51 5.0 WSW 4 13 2 7 1009.6 1008.3 0.0
02/05:00am 14.4 11.1 6.3 58 4.0 NE 13 17 7 9 1009.3 1008.0 0.0
02/04:30am 14.5 12.8 5.8 56 4.2 ENE 4 7 2 4 1008.6 1007.3 0.0
02/04:00am 16.4 13.6 5.1 47 5.5 S 9 15 5 8 1008.4 1007.1 0.0
02/03:30am 18.9 15.2 4.7 39 6.9 E 13 15 7 8 1007.9 1006.6 0.0
02/03:00am 17.8 15.1 5.4 44 6.1 E 9 13 5 7 1008.1 1006.8 0.0
02/02:30am 18.2 15.9 5.8 44 6.1 ENE 7 9 4 5 1008.0 1006.7 0.0
02/02:00am 17.3 16.2 7.1 51 5.2 W 2 7 1 4 1008.0 1006.7 0.0
02/01:30am 17.7 15.5 7.7 52 5.1 WSW 9 24 5 13 1008.0 1006.7 0.0
02/01:00am 19.5 18.7 6.3 42 6.7 CALM 0 0 0 0 1007.6 1006.3 0.0
02/12:30am 21.0 18.6 4.1 33 8.3 SSE 6 9 3 5 1007.5 1006.2 0.0
02/12:00am 23.4 20.9 3.9 28 9.7 ESE 6 11 3 6 1007.3 1006.0 0.0
 
Date/Time
EDT
Temp
°C
App
Temp
°C
Dew
Point
°C
Rel
Hum
%
Delta-T
°C
Wind Press
QNH
hPa
Press
MSL
hPa
Rain since
9am
mm
Dir  Spd
km/h
Gust
km/h
Spd
kts
Gust
kts
01/11:30pm 23.5 18.7 4.9 30 9.4 E 19 20 10 11 1007.2 1005.9 0.0
01/11:00pm 24.4 19.6 4.7 28 10.0 E 19 22 10 12 1007.0 1005.8 0.0
01/10:30pm 25.9 20.9 3.8 24 11.1 E 19 24 10 13 1007.0 1005.8 0.0
01/10:00pm 25.2 20.3 4.3 26 10.6 E 19 22 10 12 1006.9 1005.7 0.0
01/09:30pm 28.0 23.7 3.0 20 12.5 E 15 19 8 10 1006.7 1005.5 0.0
01/09:00pm 28.5 25.1 1.9 18 13.2 SE 9 11 5 6 1006.5 1005.2 0.0
01/08:30pm 28.4 24.6 1.8 18 13.1 SSE 11 13 6 7 1006.3 1005.0 0.0
01/08:00pm 29.0 25.5 1.5 17 13.6 SSE 9 11 5 6 1006.1 1004.8 0.0
01/07:30pm 32.6 28.2 0.6 13 15.9 SW 13 17 7 9 1005.7 1004.4 0.0
01/07:00pm 34.1 29.6 -0.5 11 17.1 SW 13 19 7 10 1005.3 1004.0 0.0
01/06:30pm 35.0 29.6 1.4 12 17.1 WSW 19 24 10 13 1005.0 1003.7 0.0
01/06:00pm 35.6 30.1 0.6 11 17.8 WSW 19 24 10 13 1004.9 1003.6 0.0
01/05:30pm 36.2 31.7 2.3 12 17.7 W 15 22 8 12 1004.8 1003.5 0.0
01/05:00pm 35.9 30.1 2.1 12 17.6 W 22 32 12 17 1005.1 1003.8 0.0
01/04:30pm 35.7 30.2 1.9 12 17.5 WSW 20 30 11 16 1005.3 1004.0 0.0
01/04:00pm 36.3 30.9 2.4 12 17.8 W 20 37 11 20 1005.5 1004.2 0.0
01/03:30pm 34.5 29.2 3.1 14 16.4 WSW 20 41 11 22 1006.0 1004.7 0.0
01/03:00pm 35.6 29.5 3.0 13 17.2 SW 24 43 13 23 1006.2 1004.9 0.0
01/02:30pm 36.0 29.2 3.3 13 17.3 W 28 54 15 29 1006.2 1004.9 0.0
01/02:23pm 36.2 28.3 2.3 12 17.7 W 33 48 18 26 1006.7 1005.5 0.0
01/02:13pm 36.3 30.9 4.6 14 17.1 WNW 22 48 12 26 1006.7 1005.5 0.0
01/02:00pm 34.3 29.4 4.0 15 16.1 WNW 19 30 10 16 1006.8 1005.6 0.0
01/01:30pm 35.1 30.1 3.6 14 16.7 NW 19 50 10 27 1007.0 1005.8 0.0
01/01:00pm 34.8 29.9 5.3 16 16.0 NNW 20 37 11 20 1007.3 1006.0 0.0
01/12:30pm 32.9 28.4 8.4 22 13.8 NNW 22 37 12 20 1007.6 1006.3 0.0
01/12:00pm 32.5 27.6 9.9 25 13.1 N 26 41 14 22 1008.0 1006.7 0.0
01/11:30am 31.5 26.5 10.8 28 12.0 N 28 37 15 20 1008.2 1006.9 0.0
01/11:00am 30.8 25.5 11.2 30 11.5 NNE 30 39 16 21 1008.3 1007.0 0.0
01/10:30am 30.1 24.8 11.1 31 11.0 N 30 39 16 21 1008.2 1007.0 0.0
01/10:00am 29.4 23.9 10.5 31 10.9 NNE 30 39 16 21 1008.2 1007.0 0.0
01/09:30am 28.2 22.5 9.9 32 10.3 NNE 30 39 16 21 1008.4 1007.3 0.0
01/09:00am 26.5 20.5 10.2 36 9.2 N 32 44 17 24 1008.4 1007.3 0.0
01/08:33am 26.1 20.5 10.3 37 8.9 NNE 30 48 16 26 1008.7 1007.6 0.0
01/08:30am 26.6 21.8 10.3 36 9.2 NNE 26 39 14 21 1008.7 1007.6 0.0
01/08:00am 26.2 21.4 8.7 33 9.6 NNE 24 35 13 19 1008.4 1007.3 0.0
01/07:30am 24.9 19.6 8.4 35 8.9 NNE 26 37 14 20 1008.2 1007.0 0.0
01/07:00am 23.3 19.5 9.0 40 7.8 NNE 19 22 10 12 1008.4 1007.3 0.0
01/06:30am 21.8 17.7 8.0 41 7.3 NE 19 26 10 14 1008.6 1007.5 0.0
01/06:00am 20.7 15.8 8.4 45 6.5 NNE 24 32 13 17 1008.6 1007.5 0.0
01/05:30am 20.6 18.1 8.3 45 6.5 WNW 11 15 6 8 1010.5 1009.4 0.0
01/05:00am 21.5 18.3 7.0 39 7.5 NNW 13 17 7 9 1009.7 1008.6 0.0
01/04:30am 23.0 19.8 6.7 35 8.5 NNE 13 17 7 9 1009.8 1008.7 0.0
01/04:00am 22.2 19.3 6.4 36 8.1 NNW 11 17 6 9 1009.4 1008.3 0.0
01/03:30am 23.1 18.5 5.5 32 8.9 N 19 26 10 14 1008.9 1007.8 0.0
01/03:00am 23.8 19.2 5.7 31 9.3 N 19 28 10 15 1008.3 1007.2 0.0
01/02:30am 23.0 18.8 5.9 33 8.8 N 17 20 9 11 1007.7 1006.5 0.0
01/02:00am 23.4 20.6 5.3 31 9.2 ESE 9 13 5 7 1007.5 1006.3 0.0
01/01:30am 24.1 21.5 5.9 31 9.4 E 9 17 5 9 1007.0 1005.9 0.0
01/01:00am 24.6 20.9 6.4 31 9.5 NE 15 22 8 12 1006.8 1005.7 0.0
01/12:30am 24.9 20.9 6.6 31 9.6 NE 17 26 9 14 1006.7 1005.6 0.0
01/12:00am 26.2 19.5 7.3 30 10.1 NE 32 41 17 22 1006.1 1005.0 0.0
 
Date/Time
EDT
Temp
°C
App
Temp
°C
Dew
Point
°C
Rel
Hum
%
Delta-T
°C
Wind Press
QNH
hPa
Press
MSL
hPa
Rain since
9am
mm
Dir  Spd
km/h
Gust
km/h
Spd
kts
Gust
kts
30/11:30pm 26.9 20.1 6.9 28 10.7 NE 32 41 17 22 1005.9 1004.8 0.0
30/11:00pm 28.2 21.9 5.7 24 11.9 NE 28 39 15 21 1006.1 1005.0 0.0
30/10:30pm 29.2 25.1 6.0 23 12.3 NE 17 37 9 20 1006.4 1005.3 0.0
30/10:00pm 27.3 23.7 5.0 24 11.6 NNE 13 22 7 12 1006.4 1005.3 0.0
30/09:30pm 28.2 24.1 4.5 22 12.2 E 15 17 8 9 1006.4 1005.3 0.0
30/09:00pm 27.4 23.8 5.1 24 11.6 E 13 15 7 8 1006.2 1005.1 0.0
30/08:30pm 28.8 24.9 3.6 20 12.8 E 13 15 7 8 1005.9 1004.8 0.0
30/08:00pm 29.1 26.2 4.6 21 12.8 E 9 11 5 6 1005.9 1004.8 0.0
30/07:30pm 29.5 27.1 4.2 20 13.1 N 6 7 3 4 1005.7 1004.6 0.0
30/07:00pm 31.9 28.9 2.1 15 15.1 NNW 7 9 4 5 1005.5 1004.4 0.0
30/06:30pm 34.3 30.7 0.8 12 16.9 NNW 9 13 5 7 1005.1 1004.0 0.0
30/06:00pm 34.3 30.3 0.8 12 16.9 NNW 11 15 6 8 1005.0 1003.9 0.0
30/05:30pm 34.1 30.3 1.8 13 16.5 WNW 11 17 6 9 1005.1 1004.0 0.0
30/05:00pm 33.9 29.1 0.5 12 16.7 NW 15 22 8 12 1005.4 1004.3 0.0
30/04:30pm 35.0 27.9 1.4 12 17.1 NW 28 41 15 22 1005.5 1004.4 0.0
30/04:26pm 34.9 27.8 1.3 12 17.1 WNW 28 41 15 22 1005.6 1004.5 0.0
30/04:00pm 34.6 30.7 1.1 12 17.0 SW 11 19 6 10 1005.8 1004.7 0.0
30/03:30pm 35.2 29.8 1.5 12 17.2 WSW 19 24 10 13 1006.4 1005.3 0.0
30/03:00pm 35.3 31.5 3.8 14 16.8 N 13 20 7 11 1006.7 1005.6 0.0
30/02:30pm 34.4 30.4 5.0 16 15.8 N 15 22 8 12 1007.3 1006.1 0.0
30/02:00pm 33.9 29.8 6.3 18 15.2 WNW 17 30 9 16 1007.9 1006.7 0.0
30/01:30pm 34.0 29.7 7.9 20 14.7 N 20 35 11 19 1008.5 1007.4 0.0

Other Formats:

Comma delimited format used in spreadsheet applications
http://www.bom.gov.au/fwo/IDN60801/IDN60801.95734.axf

JavaScript Object Notation format (JSON) in row-major order
http://www.bom.gov.au/fwo/IDN60801/IDN60801.95734.json